createdAt,value
2022-09-28T03:50:56.254Z,1.30
2022-09-28T03:54:49.106Z,1.37
2022-09-28T04:02:11.024Z,1.50
2022-09-28T04:05:13.949Z,1.45
2022-09-28T04:08:16.575Z,1.20
2022-09-28T04:11:21.388Z,1.35
2022-09-28T04:14:24.688Z,1.42
2022-09-28T04:17:28.102Z,1.10
2022-09-28T04:20:33.273Z,1.42
2022-09-28T04:23:38.384Z,1.00
2022-09-28T04:26:40.935Z,1.17
2022-09-28T04:29:44.374Z,1.33
2022-09-28T04:32:49.413Z,1.05
2022-09-28T04:36:19.828Z,1.10
2022-09-28T04:39:24.167Z,1.30
2022-09-28T04:42:28.099Z,1.12
2022-09-28T04:45:30.990Z,1.00
2022-09-28T04:48:34.607Z,1.48
2022-09-28T04:51:37.392Z,1.30
2022-09-28T04:54:40.093Z,1.20
2022-09-28T04:57:43.099Z,1.10
2022-09-28T05:00:45.903Z,1.20
2022-09-28T05:03:51.137Z,1.10
2022-09-28T05:06:54.508Z,1.10
2022-09-28T05:09:57.427Z,1.40
2022-09-28T05:13:02.276Z,1.35
2022-09-28T05:16:05.711Z,1.40
2022-09-28T05:19:11.645Z,1.42
2022-09-28T05:22:15.163Z,1.30
2022-09-28T05:25:18.264Z,1.33
2022-09-28T05:28:28.151Z,1.45
2022-09-28T05:31:32.452Z,1.50
2022-09-28T05:34:36.918Z,1.40
2022-09-28T05:37:41.228Z,1.30
2022-09-28T05:40:44.097Z,1.58
2022-09-28T05:43:46.646Z,1.52
2022-09-28T05:46:49.552Z,1.50
2022-09-28T05:49:53.431Z,1.50
2022-09-28T05:53:01.940Z,1.30
2022-09-28T05:56:04.532Z,1.40
2022-09-28T05:59:07.642Z,1.05
2022-09-28T06:02:10.764Z,1.10
2022-09-28T06:05:13.771Z,1.50
2022-09-28T06:08:16.328Z,1.42
2022-09-28T06:11:19.664Z,1.37
2022-09-28T06:14:23.723Z,1.45
2022-09-28T06:18:11.776Z,1.45
2022-09-28T06:25:40.974Z,1.12
2022-09-28T06:28:48.625Z,1.23
2022-09-28T06:31:52.203Z,1.12
2022-09-28T06:35:18.864Z,1.02
2022-09-28T06:43:00.992Z,1.20
2022-09-28T06:46:04.614Z,1.42
2022-09-28T06:49:32.974Z,1.10
2022-09-28T06:52:41.579Z,1.10
2022-09-28T06:55:49.027Z,1.35
2022-09-28T06:58:52.772Z,1.35
2022-09-28T07:01:55.495Z,1.00
2022-09-28T07:04:59.089Z,1.10
2022-09-28T07:08:04.243Z,1.33
2022-09-28T07:11:11.183Z,1.02
2022-09-28T07:21:30.451Z,1.30
2022-09-28T07:24:34.854Z,1.08
2022-09-28T07:27:44.312Z,1.15
2022-09-28T07:30:47.661Z,1.10
2022-09-28T07:33:51.362Z,1.05
2022-09-28T07:36:58.149Z,1.08
2022-09-28T07:40:19.891Z,1.20
2022-09-28T07:43:22.873Z,1.30
2022-09-28T07:46:25.550Z,1.45
2022-09-28T07:49:30.650Z,1.30
2022-09-28T07:52:45.810Z,1.10
2022-09-28T08:00:22.987Z,1.30
2022-09-28T08:03:47.203Z,1.40
2022-09-28T08:06:49.818Z,1.15
2022-09-28T08:09:53.937Z,1.40
2022-09-28T08:13:04.742Z,2.17
2022-09-28T08:16:09.784Z,1.55
2022-09-28T08:19:12.797Z,1.27
2022-09-28T08:30:13.806Z,1.52
2022-09-28T08:33:20.375Z,1.20
2022-09-28T08:36:34.453Z,1.12
2022-09-28T08:40:14.898Z,1.33
2022-09-28T08:43:56.993Z,1.30
2022-09-28T08:47:05.245Z,1.15
2022-09-28T08:50:15.312Z,1.30
2022-09-28T08:53:31.443Z,1.50
2022-09-28T08:56:37.160Z,1.50
2022-09-28T08:59:45.666Z,1.73
2022-09-28T09:02:51.798Z,1.70
2022-09-28T09:06:30.720Z,1.50
2022-09-28T09:09:42.221Z,1.42
2022-09-28T09:13:04.252Z,1.42
2022-09-28T09:16:27.300Z,1.50
2022-09-28T09:19:37.850Z,1.27
2022-09-28T09:22:47.952Z,1.40
2022-09-28T09:26:03.611Z,1.50
2022-09-28T09:29:13.706Z,1.52
2022-09-28T09:32:35.701Z,1.30
2022-09-28T09:36:16.264Z,1.42
2022-09-28T09:39:42.267Z,1.75
2022-09-28T09:43:07.347Z,1.10
2022-09-28T09:46:28.597Z,1.25
2022-09-28T09:49:45.611Z,1.48
2022-09-28T09:53:00.588Z,1.48
2022-09-28T09:56:15.258Z,1.58
2022-09-28T09:59:28.934Z,1.40
2022-09-28T10:02:34.980Z,1.23
2022-09-28T10:05:40.703Z,1.35
2022-09-28T10:08:49.351Z,1.20
2022-09-28T10:11:54.735Z,1.23
2022-09-28T10:14:57.365Z,1.00
2022-09-28T10:18:09.567Z,1.42
2022-09-28T10:21:37.518Z,1.02
2022-09-28T10:24:47.271Z,1.30
2022-09-28T10:27:52.566Z,1.20
2022-09-28T10:30:55.707Z,1.12
2022-09-28T10:33:58.361Z,1.37
2022-09-28T10:37:04.238Z,1.25
2022-09-28T10:40:30.875Z,1.10
2022-09-28T10:47:45.539Z,1.20
2022-09-28T10:54:22.023Z,2.00
2022-09-28T10:57:35.356Z,2.28
2022-09-28T11:00:43.550Z,1.23
2022-09-28T11:04:00.198Z,1.15
2022-09-28T11:07:02.799Z,2.92
2022-09-28T11:10:10.115Z,2.30
2022-09-28T11:13:12.663Z,1.40
2022-09-28T11:16:39.970Z,1.60
2022-09-28T11:19:43.781Z,1.80
2022-09-28T11:22:49.885Z,2.00
2022-09-28T11:26:01.791Z,2.00
2022-09-28T11:29:05.879Z,1.80
2022-09-28T11:32:15.913Z,2.33
2022-09-28T11:35:29.333Z,1.73
2022-09-28T11:38:40.281Z,1.90
2022-09-28T11:42:11.008Z,1.70
2022-09-28T11:45:43.475Z,1.60
2022-09-28T11:48:51.566Z,1.50
2022-09-28T11:51:59.891Z,1.20
2022-09-28T11:55:12.062Z,1.17
2022-09-28T11:58:27.500Z,1.35
2022-09-28T12:01:46.045Z,0.90
2022-09-28T12:04:59.137Z,0.90
2022-09-28T12:08:13.628Z,0.73
2022-09-28T12:11:25.248Z,0.75
2022-09-28T12:14:34.704Z,1.00
2022-09-28T12:17:48.755Z,0.80
2022-09-28T12:21:07.780Z,0.73
2022-09-28T12:24:19.779Z,0.60
2022-09-28T12:27:25.337Z,0.60
2022-09-28T12:30:33.203Z,0.55
2022-09-28T12:33:37.509Z,0.52
2022-09-28T12:37:13.212Z,0.60
2022-09-28T12:40:47.902Z,0.60
2022-09-28T12:44:00.785Z,0.77
2022-09-28T12:47:24.898Z,0.47
2022-09-28T12:50:47.490Z,0.70
2022-09-28T12:54:08.002Z,0.63
2022-09-28T12:57:42.130Z,0.57
2022-09-28T13:01:18.185Z,0.55
2022-09-28T13:04:46.128Z,0.40
2022-09-28T13:08:02.129Z,0.50
2022-09-28T13:11:32.059Z,0.50
2022-09-28T13:14:53.179Z,0.40
2022-09-28T13:18:22.228Z,0.40
2022-09-28T13:21:49.950Z,0.40
2022-09-28T13:24:57.779Z,0.60
2022-09-28T13:28:03.685Z,0.62
2022-09-28T13:31:07.999Z,0.60
2022-09-28T13:34:19.422Z,0.60
2022-09-28T13:37:24.780Z,0.57
2022-09-28T13:41:06.068Z,0.50
2022-09-28T13:44:12.438Z,0.47
2022-09-28T13:47:50.372Z,0.68
2022-09-28T13:51:15.478Z,0.60
2022-09-28T13:54:50.351Z,0.65
2022-09-28T13:58:06.646Z,0.52
2022-09-28T14:01:16.096Z,0.70
2022-09-28T14:04:24.487Z,0.60
2022-09-28T14:07:59.057Z,0.57
2022-09-28T14:11:40.206Z,0.50
2022-09-28T14:14:52.748Z,0.60
2022-09-28T14:18:23.816Z,0.60
2022-09-28T14:21:51.273Z,0.70
2022-09-28T14:25:13.660Z,0.68
2022-09-28T14:28:32.075Z,0.60
2022-09-28T14:31:42.774Z,0.90
2022-09-28T14:34:48.063Z,0.50
2022-09-28T14:38:14.344Z,0.80
2022-09-28T14:41:18.073Z,0.55
2022-09-28T14:44:20.893Z,0.65
2022-09-28T14:47:44.892Z,0.60
2022-09-28T14:50:49.926Z,0.60
2022-09-28T14:54:01.857Z,0.80
2022-09-28T14:57:16.812Z,0.60
2022-09-28T15:00:25.986Z,0.60
2022-09-28T15:03:32.797Z,0.80
2022-09-28T15:06:46.269Z,0.80
2022-09-28T15:09:54.421Z,0.80
2022-09-28T15:13:01.324Z,0.98
2022-09-28T15:16:09.974Z,0.70
2022-09-28T15:19:32.516Z,1.00
2022-09-28T15:22:37.189Z,0.90
2022-09-28T15:25:39.763Z,1.00
2022-09-28T15:28:45.028Z,0.93
2022-09-28T15:31:51.110Z,0.85
2022-09-28T15:34:58.515Z,0.60
2022-09-28T15:38:01.037Z,1.00
2022-09-28T15:41:06.790Z,0.95
2022-09-28T15:44:12.600Z,0.80
2022-09-28T15:47:29.640Z,0.75
2022-09-28T15:50:34.484Z,0.90
2022-09-28T15:53:43.790Z,0.73
2022-09-28T15:56:55.336Z,1.10
2022-09-28T15:59:59.547Z,1.17
